North Dennis, New Jersey
Current Conditions -  °F | °C
As of 4:55 PM on Friday 28 Nov 2014 (Local Time) from KWWD Reporting Station
Scattered Clouds Scattered Clouds  
Wind Chill: 29°   Ceiling: Unl
Heat Index: 36°   Visibility: 10mi
Dew Point: 16°   Wind: 8mph
Humidity: 44%   Direction: 320°NW
Pressure: 30.24"   Gusts: NA
Location:  39.1932°N, 74.8256°W
Report Text: KWWD 282155Z AUTO 32007KT 190V350 10SM SCT049 02/M09 A3024 RMK AO1
Loading
Personal Weather Stations






























Interactive Weather Map New forecast layout! Learn more

10-Day Weather Forecast

Advertisements
Track Severe Weather on mobile